Time;durP1;ratioP1;P1;durP2;ratioP2;P2;SDS_P1;SDS_P2;PMS_P1;PMS_P2;Temp;Humidity;BMP_temperature;BMP_pressure;BME280_temperature;BME280_humidity;BME280_pressure;Samples;Min_cycle;Max_cycle;Signal;HPM_P1;HPM_P2
2023/01/09 00:00:52;;;;;;;2.00;1.80;;;;;;;;;;4996347;28;20226;-33
2023/01/09 00:03:19;;;;;;;2.00;1.90;;;;;;;;;;5012457;28;20200;-29
2023/01/09 00:05:46;;;;;;;2.40;1.97;;;;;;;;;;5013060;28;20214;-27
2023/01/09 00:08:13;;;;;;;1.97;1.77;;;;;;;;;;4999217;28;20447;-30
2023/01/09 00:10:40;;;;;;;2.20;2.00;;;;;;;;;;5010845;28;20217;-30
2023/01/09 00:13:10;;;;;;;2.50;1.87;;;;;;;;;;5004288;28;20197;-32
2023/01/09 00:15:37;;;;;;;2.40;2.07;;;;;;;;;;5002648;28;20218;-31
2023/01/09 00:18:04;;;;;;;3.03;2.20;;;;;;;;;;5011948;28;20229;-32
2023/01/09 00:20:31;;;;;;;1.53;1.43;;;;;;;;;;5011623;28;20208;-32
2023/01/09 00:22:59;;;;;;;2.83;1.63;;;;;;;;;;5007413;28;20239;-31
2023/01/09 00:25:26;;;;;;;1.60;1.50;;;;;;;;;;5008739;28;20215;-31
2023/01/09 00:27:53;;;;;;;1.87;1.50;;;;;;;;;;5005769;28;20200;-27
2023/01/09 00:30:21;;;;;;;1.30;1.20;;;;;;;;;;5010819;28;20200;-28
2023/01/09 00:32:48;;;;;;;1.30;1.20;;;;;;;;;;5004382;28;20227;-30
2023/01/09 00:35:16;;;;;;;1.60;1.30;;;;;;;;;;5012082;28;20676;-32
2023/01/09 00:37:44;;;;;;;1.43;1.33;;;;;;;;;;5005570;28;20224;-30
2023/01/09 00:40:13;;;;;;;1.50;1.40;;;;;;;;;;5010869;28;20231;-34
2023/01/09 00:42:40;;;;;;;1.70;1.60;;;;;;;;;;5006753;28;20545;-31
2023/01/09 00:45:10;;;;;;;2.37;1.50;;;;;;;;;;5005844;28;20208;-29
2023/01/09 00:47:41;;;;;;;1.43;1.33;;;;;;;;;;5010469;28;20214;-31
2023/01/09 00:50:11;;;;;;;1.83;1.47;;;;;;;;;;5011502;28;20269;-32
2023/01/09 00:52:39;;;;;;;3.73;2.17;;;;;;;;;;5001937;28;20227;-29
2023/01/09 00:55:06;;;;;;;1.60;1.50;;;;;;;;;;5009475;28;20291;-30
2023/01/09 00:57:33;;;;;;;2.17;1.90;;;;;;;;;;5007205;28;20238;-31
2023/01/09 01:00:01;;;;;;;2.67;2.20;;;;;;;;;;4998844;28;20583;-28
2023/01/09 01:02:28;;;;;;;2.90;2.63;;;;;;;;;;5008575;28;20227;-29
2023/01/09 01:07:42;;;;;;;3.87;2.93;;;;;;;;;;4999936;28;20207;-29
2023/01/09 01:10:11;;;;;;;4.23;2.97;;;;;;;;;;5005628;28;20604;-31
2023/01/09 01:12:38;;;;;;;5.23;3.30;;;;;;;;;;5008203;28;20243;-32
2023/01/09 01:15:06;;;;;;;4.20;2.83;;;;;;;;;;5000681;28;20214;-30
2023/01/09 01:17:34;;;;;;;3.40;2.73;;;;;;;;;;5013389;28;20235;-33
2023/01/09 01:20:02;;;;;;;3.17;2.67;;;;;;;;;;5014354;28;20199;-32
2023/01/09 01:22:30;;;;;;;2.83;2.50;;;;;;;;;;5004035;28;20231;-26
2023/01/09 01:24:57;;;;;;;4.13;3.00;;;;;;;;;;5014541;28;20209;-29
2023/01/09 01:27:24;;;;;;;3.00;2.63;;;;;;;;;;5013500;28;20200;-29
2023/01/09 01:29:51;;;;;;;3.87;2.57;;;;;;;;;;5003892;28;20669;-31
2023/01/09 01:32:18;;;;;;;4.33;3.00;;;;;;;;;;5011492;28;20222;-31
2023/01/09 01:34:45;;;;;;;4.13;2.57;;;;;;;;;;5011748;28;20358;-30
2023/01/09 01:37:14;;;;;;;2.40;2.20;;;;;;;;;;5005994;28;20227;-30
2023/01/09 01:39:41;;;;;;;4.93;3.03;;;;;;;;;;5004726;28;20208;-28
2023/01/09 01:42:08;;;;;;;3.00;2.67;;;;;;;;;;5011799;28;20230;-28
2023/01/09 01:44:54;;;;;;;3.20;2.23;;;;;;;;;;5006074;28;20645;-29
2023/01/09 01:47:22;;;;;;;2.23;2.00;;;;;;;;;;5007017;28;20207;-31
2023/01/09 01:49:49;;;;;;;2.30;2.10;;;;;;;;;;5010498;28;20563;-31
2023/01/09 01:52:18;;;;;;;2.50;2.20;;;;;;;;;;5004894;28;20226;-32
2023/01/09 01:54:46;;;;;;;2.43;2.13;;;;;;;;;;5000672;28;20210;-29
2023/01/09 01:57:13;;;;;;;2.87;2.13;;;;;;;;;;5012523;28;20230;-29
2023/01/09 01:59:41;;;;;;;4.27;2.33;;;;;;;;;;4994461;28;20219;-28
2023/01/09 02:02:09;;;;;;;3.50;2.67;;;;;;;;;;4999631;28;20228;-30
2023/01/09 02:04:38;;;;;;;1.90;1.80;;;;;;;;;;5008087;28;20211;-30
2023/01/09 02:07:08;;;;;;;2.83;2.53;;;;;;;;;;5009989;28;20203;-29
2023/01/09 02:09:37;;;;;;;2.40;2.20;;;;;;;;;;5009025;28;20214;-31
2023/01/09 02:12:15;;;;;;;2.80;2.27;;;;;;;;;;5003805;28;20237;-31
2023/01/09 02:14:42;;;;;;;3.13;2.33;;;;;;;;;;4998190;28;20215;-29
2023/01/09 02:17:17;;;;;;;2.20;2.00;;;;;;;;;;5009449;28;20249;-27
2023/01/09 02:20:03;;;;;;;2.67;2.37;;;;;;;;;;5009241;28;20210;-29
2023/01/09 02:22:36;;;;;;;2.30;2.10;;;;;;;;;;5000531;28;20227;-30
2023/01/09 02:25:21;;;;;;;2.23;2.03;;;;;;;;;;5009661;28;20211;-30
2023/01/09 02:27:59;;;;;;;2.27;2.07;;;;;;;;;;5002205;28;20230;-31
2023/01/09 02:30:30;;;;;;;2.57;2.30;;;;;;;;;;4991050;28;20211;-28
2023/01/09 02:33:08;;;;;;;2.40;2.17;;;;;;;;;;5009561;28;20674;-31
2023/01/09 02:35:42;;;;;;;2.40;2.20;;;;;;;;;;5007973;28;20317;-30
2023/01/09 02:38:14;;;;;;;2.10;2.00;;;;;;;;;;4994820;28;20227;-32
2023/01/09 02:40:44;;;;;;;3.03;2.30;;;;;;;;;;5001861;28;20329;-31
2023/01/09 02:43:12;;;;;;;1.77;1.67;;;;;;;;;;5006080;28;20200;-31
2023/01/09 02:45:41;;;;;;;2.27;1.80;;;;;;;;;;5004275;28;20203;-31
2023/01/09 02:48:10;;;;;;;1.83;1.70;;;;;;;;;;5012932;28;20203;-31
2023/01/09 02:50:40;;;;;;;2.07;1.60;;;;;;;;;;5012867;28;20211;-30
2023/01/09 02:53:32;;;;;;;1.20;1.20;;;;;;;;;;5003653;28;20215;-33
2023/01/09 02:56:05;;;;;;;1.40;1.30;;;;;;;;;;5005302;28;20286;-30
2023/01/09 02:58:45;;;;;;;1.87;1.70;;;;;;;;;;4999342;28;20239;-27
2023/01/09 03:01:17;;;;;;;1.87;1.70;;;;;;;;;;4998214;28;20243;-28
2023/01/09 03:03:47;;;;;;;1.23;1.13;;;;;;;;;;5008821;28;20646;-31
2023/01/09 03:06:18;;;;;;;1.23;1.17;;;;;;;;;;5009272;28;20215;-31
2023/01/09 03:08:48;;;;;;;0.77;0.77;;;;;;;;;;5002011;28;20287;-29
2023/01/09 03:11:15;;;;;;;0.80;0.80;;;;;;;;;;5007596;28;20571;-32
2023/01/09 03:13:45;;;;;;;0.80;0.80;;;;;;;;;;5001580;28;20220;-30
2023/01/09 03:16:13;;;;;;;0.50;0.50;;;;;;;;;;5002109;28;20203;-27
2023/01/09 03:18:42;;;;;;;0.70;0.60;;;;;;;;;;5008695;28;20223;-26
2023/01/09 03:21:10;;;;;;;0.70;0.70;;;;;;;;;;5003532;28;20228;-29
2023/01/09 03:23:47;;;;;;;0.40;0.40;;;;;;;;;;4996417;28;20203;-29
2023/01/09 03:26:14;;;;;;;0.40;0.40;;;;;;;;;;5009053;28;20203;-31
2023/01/09 03:28:42;;;;;;;0.40;0.40;;;;;;;;;;5001105;28;20582;-31
2023/01/09 03:31:09;;;;;;;0.30;0.30;;;;;;;;;;5000449;28;20636;-29
2023/01/09 03:33:36;;;;;;;0.47;0.47;;;;;;;;;;5008581;28;20217;-29
2023/01/09 03:36:05;;;;;;;0.40;0.40;;;;;;;;;;5004516;28;20386;-31
2023/01/09 03:38:32;;;;;;;0.40;0.40;;;;;;;;;;4995034;28;20235;-27
2023/01/09 03:41:00;;;;;;;0.20;0.20;;;;;;;;;;5012144;28;20684;-34
2023/01/09 03:43:27;;;;;;;0.20;0.20;;;;;;;;;;5006789;28;20211;-33
2023/01/09 03:45:54;;;;;;;0.20;0.20;;;;;;;;;;5012025;28;20211;-32
2023/01/09 03:48:21;;;;;;;0.73;0.47;;;;;;;;;;5012026;28;20196;-26
2023/01/09 03:50:48;;;;;;;0.60;0.50;;;;;;;;;;5012371;28;20211;-31
2023/01/09 03:53:17;;;;;;;2.67;0.40;;;;;;;;;;5004725;28;20211;-30
2023/01/09 03:55:46;;;;;;;0.40;0.40;;;;;;;;;;5009438;28;20207;-28
2023/01/09 03:58:13;;;;;;;0.27;0.27;;;;;;;;;;5005699;28;20801;-31
2023/01/09 04:00:40;;;;;;;0.40;0.40;;;;;;;;;;5003567;28;20208;-29
2023/01/09 04:03:08;;;;;;;1.70;0.40;;;;;;;;;;5012210;28;20195;-30
2023/01/09 04:05:36;;;;;;;0.30;0.30;;;;;;;;;;5011656;28;20227;-31
2023/01/09 04:08:03;;;;;;;0.40;0.40;;;;;;;;;;5003183;28;20230;-32
2023/01/09 04:10:31;;;;;;;0.40;0.40;;;;;;;;;;5009041;28;20207;-29
2023/01/09 04:12:58;;;;;;;0.30;0.30;;;;;;;;;;5004898;28;20208;-38
2023/01/09 04:15:26;;;;;;;0.40;0.40;;;;;;;;;;4993551;28;20211;-37
2023/01/09 04:17:53;;;;;;;0.47;0.47;;;;;;;;;;5012381;28;20222;-36
2023/01/09 04:20:20;;;;;;;0.30;0.30;;;;;;;;;;5006089;28;20293;-34
2023/01/09 04:22:47;;;;;;;0.40;0.40;;;;;;;;;;5003073;28;20516;-39
2023/01/09 04:25:14;;;;;;;0.30;0.30;;;;;;;;;;5011383;28;20203;-37
2023/01/09 04:27:43;;;;;;;0.27;0.27;;;;;;;;;;5007474;28;20199;-34
2023/01/09 04:30:10;;;;;;;1.90;0.20;;;;;;;;;;4992315;28;20210;-37
2023/01/09 04:32:37;;;;;;;0.20;0.20;;;;;;;;;;5010353;28;20238;-35
2023/01/09 04:35:05;;;;;;;0.20;0.20;;;;;;;;;;5011794;28;20207;-36
2023/01/09 04:37:32;;;;;;;0.10;0.10;;;;;;;;;;5006298;28;20211;-39
2023/01/09 04:39:59;;;;;;;0.40;0.40;;;;;;;;;;5010613;28;20634;-39
2023/01/09 04:42:26;;;;;;;0.27;0.20;;;;;;;;;;5008289;28;20230;-37
2023/01/09 04:44:54;;;;;;;0.73;0.30;;;;;;;;;;5002713;28;20208;-38
2023/01/09 04:47:22;;;;;;;0.20;0.20;;;;;;;;;;5011195;28;20195;-37
2023/01/09 04:49:49;;;;;;;0.20;0.20;;;;;;;;;;5011471;28;20203;-35
2023/01/09 04:52:16;;;;;;;1.30;0.47;;;;;;;;;;5006699;28;20227;-37
2023/01/09 04:54:43;;;;;;;0.20;0.20;;;;;;;;;;5001146;28;20226;-37
2023/01/09 04:57:11;;;;;;;0.20;0.20;;;;;;;;;;5009266;28;20210;-36
2023/01/09 04:59:38;;;;;;;0.03;0.03;;;;;;;;;;4999937;28;20227;-33
2023/01/09 05:02:06;;;;;;;0.30;0.20;;;;;;;;;;5009660;28;20227;-39
2023/01/09 05:04:33;;;;;;;0.17;0.17;;;;;;;;;;5010693;28;20219;-36
2023/01/09 05:07:00;;;;;;;0.20;0.20;;;;;;;;;;5007574;28;20211;-37
2023/01/09 05:09:28;;;;;;;0.10;0.10;;;;;;;;;;5004177;28;20207;-37
2023/01/09 05:11:55;;;;;;;0.20;0.20;;;;;;;;;;5009924;28;20223;-37
2023/01/09 05:14:22;;;;;;;0.10;0.10;;;;;;;;;;5003262;28;20238;-37
2023/01/09 05:16:49;;;;;;;0.20;0.20;;;;;;;;;;5009839;28;20211;-38
2023/01/09 05:19:17;;;;;;;0.10;0.10;;;;;;;;;;5010324;28;20222;-35
2023/01/09 05:21:45;;;;;;;0.17;0.17;;;;;;;;;;5000499;28;20243;-34
2023/01/09 05:24:12;;;;;;;0.00;0.00;;;;;;;;;;5005491;28;20211;-36
2023/01/09 05:26:39;;;;;;;0.10;0.10;;;;;;;;;;5010381;28;20210;-34
2023/01/09 05:29:06;;;;;;;0.20;0.13;;;;;;;;;;4998511;28;20200;-37
2023/01/09 05:31:33;;;;;;;0.30;0.10;;;;;;;;;;5006665;28;20258;-34
2023/01/09 05:34:00;;;;;;;0.17;0.17;;;;;;;;;;5010759;28;20204;-31
2023/01/09 05:36:29;;;;;;;2.97;0.20;;;;;;;;;;4990909;28;20761;-36
2023/01/09 05:38:57;;;;;;;0.57;0.10;;;;;;;;;;5001220;28;20242;-34
2023/01/09 05:41:24;;;;;;;0.70;0.10;;;;;;;;;;5009336;28;20223;-39
2023/01/09 05:43:52;;;;;;;0.50;0.30;;;;;;;;;;4998792;28;20214;-40
2023/01/09 05:46:19;;;;;;;0.10;0.10;;;;;;;;;;5006990;28;20215;-40
2023/01/09 05:48:46;;;;;;;0.13;0.13;;;;;;;;;;5009393;28;20207;-40
2023/01/09 05:51:13;;;;;;;0.00;0.00;;;;;;;;;;5000457;28;20232;-35
2023/01/09 05:53:42;;;;;;;0.83;0.20;;;;;;;;;;4994374;28;20214;-42
2023/01/09 05:56:09;;;;;;;1.93;0.20;;;;;;;;;;5010101;28;20199;-34
2023/01/09 05:58:36;;;;;;;0.10;0.10;;;;;;;;;;4996308;28;20227;-37
2023/01/09 06:01:03;;;;;;;0.20;0.20;;;;;;;;;;5001279;28;20223;-34
2023/01/09 06:03:32;;;;;;;0.40;0.20;;;;;;;;;;5008917;28;20264;-35
2023/01/09 06:05:59;;;;;;;0.10;0.10;;;;;;;;;;5010265;28;20257;-37
2023/01/09 06:08:26;;;;;;;0.10;0.10;;;;;;;;;;5003432;28;20219;-36
2023/01/09 06:10:55;;;;;;;0.20;0.20;;;;;;;;;;5002328;28;20219;-31
2023/01/09 06:13:22;;;;;;;1.43;0.47;;;;;;;;;;5003574;28;20219;-35
2023/01/09 06:15:49;;;;;;;0.30;0.20;;;;;;;;;;5008456;28;20207;-37
2023/01/09 06:18:16;;;;;;;0.27;0.20;;;;;;;;;;5009658;28;20269;-31
2023/01/09 06:20:44;;;;;;;0.30;0.30;;;;;;;;;;5008816;28;20223;-34
2023/01/09 06:23:12;;;;;;;0.17;0.17;;;;;;;;;;4999400;28;20204;-35
2023/01/09 06:25:39;;;;;;;0.20;0.20;;;;;;;;;;5008144;28;20209;-40
2023/01/09 06:28:07;;;;;;;0.20;0.20;;;;;;;;;;5003892;28;20208;-35
2023/01/09 06:30:34;;;;;;;0.20;0.20;;;;;;;;;;5006137;28;20207;-33
2023/01/09 06:33:01;;;;;;;0.10;0.10;;;;;;;;;;5010172;28;20199;-35
2023/01/09 06:35:29;;;;;;;0.27;0.27;;;;;;;;;;5010239;28;20680;-32
2023/01/09 06:37:56;;;;;;;0.20;0.20;;;;;;;;;;5004092;28;20207;-35
2023/01/09 06:40:23;;;;;;;0.20;0.20;;;;;;;;;;5007719;28;20649;-37
2023/01/09 06:42:50;;;;;;;2.33;0.30;;;;;;;;;;5003693;28;20235;-32
2023/01/09 06:45:19;;;;;;;0.20;0.20;;;;;;;;;;4998287;28;20209;-35
2023/01/09 06:47:47;;;;;;;0.30;0.30;;;;;;;;;;5011329;28;20210;-33
2023/01/09 06:50:14;;;;;;;0.20;0.20;;;;;;;;;;5009642;28;20207;-33
2023/01/09 06:52:41;;;;;;;0.10;0.10;;;;;;;;;;5000531;28;20227;-37
2023/01/09 06:55:09;;;;;;;0.30;0.20;;;;;;;;;;5009151;28;20214;-34
2023/01/09 06:57:36;;;;;;;0.87;0.30;;;;;;;;;;5005694;28;20207;-33
2023/01/09 07:00:04;;;;;;;0.30;0.30;;;;;;;;;;4994795;28;20226;-39
2023/01/09 07:02:32;;;;;;;1.13;0.40;;;;;;;;;;5007702;28;20235;-43
2023/01/09 07:04:59;;;;;;;0.50;0.40;;;;;;;;;;5006098;28;20207;-37
2023/01/09 07:07:27;;;;;;;1.33;0.43;;;;;;;;;;4999543;28;20677;-32
2023/01/09 07:09:54;;;;;;;1.03;0.40;;;;;;;;;;5010643;28;20199;-39
2023/01/09 07:12:21;;;;;;;0.37;0.37;;;;;;;;;;5011872;28;20219;-41
2023/01/09 07:14:48;;;;;;;0.30;0.30;;;;;;;;;;5002067;28;20215;-41
2023/01/09 07:17:15;;;;;;;1.13;0.73;;;;;;;;;;5011761;28;20218;-36
2023/01/09 07:19:44;;;;;;;0.23;0.23;;;;;;;;;;5011021;28;20215;-36
2023/01/09 07:22:11;;;;;;;0.30;0.30;;;;;;;;;;5004660;28;20227;-39
2023/01/09 07:24:38;;;;;;;0.20;0.20;;;;;;;;;;5013374;28;20219;-38
2023/01/09 07:27:05;;;;;;;0.20;0.20;;;;;;;;;;5016478;28;20207;-41
2023/01/09 07:29:32;;;;;;;2.00;0.30;;;;;;;;;;5003297;28;20204;-37
2023/01/09 07:31:59;;;;;;;0.30;0.30;;;;;;;;;;5005434;28;20230;-37
2023/01/09 07:34:26;;;;;;;0.30;0.30;;;;;;;;;;5011651;28;20207;-36
2023/01/09 07:36:55;;;;;;;0.83;0.37;;;;;;;;;;5004642;28;20269;-36
2023/01/09 07:39:22;;;;;;;0.50;0.40;;;;;;;;;;5009894;28;20234;-33
2023/01/09 07:41:49;;;;;;;1.07;0.50;;;;;;;;;;5011414;28;20231;-35
2023/01/09 07:44:29;;;;;;;2.23;0.50;;;;;;;;;;4996911;28;20206;-36
2023/01/09 07:46:56;;;;;;;0.40;0.40;;;;;;;;;;5008327;28;20204;-35
2023/01/09 07:49:30;;;;;;;2.43;0.50;;;;;;;;;;5015543;28;20203;-36
2023/01/09 07:51:58;;;;;;;0.47;0.40;;;;;;;;;;5012451;28;20223;-32
2023/01/09 07:54:25;;;;;;;1.40;0.30;;;;;;;;;;5001594;28;20252;-36
2023/01/09 07:56:52;;;;;;;0.47;0.47;;;;;;;;;;5011752;28;20204;-33
2023/01/09 07:59:19;;;;;;;1.60;0.43;;;;;;;;;;4996077;28;20228;-32
2023/01/09 08:01:46;;;;;;;1.10;0.60;;;;;;;;;;5006327;28;20231;-33
2023/01/09 08:04:14;;;;;;;1.53;0.50;;;;;;;;;;5014604;28;20218;-38
2023/01/09 08:06:41;;;;;;;2.07;0.40;;;;;;;;;;5015410;28;20192;-30
2023/01/09 08:09:09;;;;;;;0.87;0.60;;;;;;;;;;5005666;28;20207;-31
2023/01/09 08:11:36;;;;;;;0.40;0.40;;;;;;;;;;5004113;28;20227;-36
2023/01/09 08:14:03;;;;;;;0.87;0.40;;;;;;;;;;5001567;28;20208;-31
2023/01/09 08:16:30;;;;;;;1.17;0.70;;;;;;;;;;5005385;28;20208;-37
2023/01/09 08:18:58;;;;;;;2.53;0.50;;;;;;;;;;5014224;28;20227;-34
2023/01/09 08:21:25;;;;;;;1.17;0.47;;;;;;;;;;5011803;28;20233;-33
2023/01/09 08:23:52;;;;;;;1.43;0.50;;;;;;;;;;4998662;28;20210;-40
2023/01/09 08:26:21;;;;;;;0.87;0.40;;;;;;;;;;5011226;28;20210;-33
2023/01/09 08:28:48;;;;;;;0.87;0.47;;;;;;;;;;5007759;28;20281;-41
2023/01/09 08:31:22;;;;;;;0.43;0.43;;;;;;;;;;5002156;28;20231;-40
2023/01/09 08:33:49;;;;;;;1.00;0.50;;;;;;;;;;5011483;28;20204;-33
2023/01/09 08:36:16;;;;;;;2.63;0.50;;;;;;;;;;5010895;28;20199;-36
2023/01/09 08:38:43;;;;;;;0.60;0.60;;;;;;;;;;5014251;28;20211;-39
2023/01/09 08:47:08;;;;;;;1.33;0.63;;;;;;;;;;5013381;28;20258;-34
2023/01/09 08:49:35;;;;;;;2.10;0.77;;;;;;;;;;5014107;28;20634;-31
2023/01/09 08:52:02;;;;;;;0.70;0.50;;;;;;;;;;5012498;28;20227;-35
2023/01/09 08:54:30;;;;;;;0.60;0.60;;;;;;;;;;4994398;28;20208;-33
2023/01/09 08:56:57;;;;;;;1.23;0.67;;;;;;;;;;5012178;28;20199;-36
2023/01/09 08:59:25;;;;;;;1.70;0.57;;;;;;;;;;5001818;28;20223;-33
2023/01/09 09:01:52;;;;;;;2.00;0.70;;;;;;;;;;5006792;28;20228;-35
2023/01/09 09:04:19;;;;;;;2.93;0.73;;;;;;;;;;5014338;28;20218;-36
2023/01/09 09:06:46;;;;;;;2.57;0.63;;;;;;;;;;5014391;28;20642;-34
2023/01/09 09:09:14;;;;;;;2.83;0.50;;;;;;;;;;5003687;28;20203;-33
2023/01/09 09:11:41;;;;;;;2.13;0.80;;;;;;;;;;5013299;28;20231;-36
2023/01/09 09:16:50;;;;;;;1.93;0.50;;;;;;;;;;5012355;28;20207;-35
2023/01/09 09:19:18;;;;;;;1.23;0.90;;;;;;;;;;5013730;28;20231;-34
2023/01/09 09:21:45;;;;;;;2.90;0.70;;;;;;;;;;5010640;28;20223;-38
2023/01/09 09:24:12;;;;;;;1.33;0.40;;;;;;;;;;5009307;28;20246;-34
2023/01/09 09:26:39;;;;;;;2.57;0.60;;;;;;;;;;5013495;28;20203;-38
2023/01/09 09:29:06;;;;;;;3.40;0.97;;;;;;;;;;5003635;28;20200;-34
2023/01/09 09:31:33;;;;;;;1.57;0.50;;;;;;;;;;5011550;28;20227;-35
2023/01/09 09:34:02;;;;;;;2.57;0.40;;;;;;;;;;5011215;28;20215;-31
2023/01/09 09:36:29;;;;;;;1.77;0.80;;;;;;;;;;5007670;28;20202;-34
2023/01/09 09:38:56;;;;;;;0.60;0.47;;;;;;;;;;5002240;28;20231;-30
2023/01/09 09:44:46;;;;;;;3.60;1.00;;;;;;;;;;4998138;28;20194;-34
2023/01/09 09:47:20;;;;;;;2.20;0.70;;;;;;;;;;5008831;28;20274;-30
2023/01/09 09:49:52;;;;;;;2.03;0.60;;;;;;;;;;5013002;28;20203;-35
2023/01/09 09:52:25;;;;;;;1.37;0.57;;;;;;;;;;5010018;28;20223;-37
2023/01/09 09:55:07;;;;;;;1.83;0.60;;;;;;;;;;5008840;28;20199;-35
2023/01/09 09:57:36;;;;;;;2.00;0.80;;;;;;;;;;5007248;28;20208;-35
2023/01/09 10:00:03;;;;;;;2.30;0.60;;;;;;;;;;4994609;28;20224;-36
2023/01/09 10:02:33;;;;;;;0.93;0.40;;;;;;;;;;5009425;28;20231;-40
2023/01/09 10:05:05;;;;;;;1.57;0.47;;;;;;;;;;5012875;28;20215;-36
2023/01/09 10:07:35;;;;;;;6.00;0.90;;;;;;;;;;5010399;28;20204;-37
2023/01/09 10:10:05;;;;;;;0.80;0.70;;;;;;;;;;5007172;28;20199;-38
2023/01/09 10:12:34;;;;;;;1.10;0.50;;;;;;;;;;5008884;28;20227;-37
2023/01/09 10:15:03;;;;;;;0.97;0.50;;;;;;;;;;4997899;28;20212;-33
2023/01/09 10:17:44;;;;;;;2.90;0.73;;;;;;;;;;5009947;28;20200;-34
2023/01/09 10:20:36;;;;;;;2.00;0.70;;;;;;;;;;5012441;28;20211;-35
2023/01/09 10:23:11;;;;;;;1.90;0.57;;;;;;;;;;4995168;28;20298;-31
2023/01/09 10:25:41;;;;;;;0.80;0.80;;;;;;;;;;5006768;28;20203;-38
2023/01/09 10:28:21;;;;;;;1.13;0.50;;;;;;;;;;5005124;28;20208;-35
2023/01/09 10:30:50;;;;;;;2.93;0.70;;;;;;;;;;5006060;28;20204;-38
2023/01/09 10:33:26;;;;;;;1.20;0.53;;;;;;;;;;5010537;28;20200;-35
2023/01/09 10:36:01;;;;;;;2.93;0.70;;;;;;;;;;5009553;28;20379;-34
2023/01/09 10:38:30;;;;;;;1.10;0.30;;;;;;;;;;5001208;28;20237;-38
2023/01/09 10:41:02;;;;;;;1.43;0.70;;;;;;;;;;4996754;28;20224;-36
2023/01/09 10:43:31;;;;;;;1.37;0.40;;;;;;;;;;5003656;28;20254;-37
2023/01/09 10:46:02;;;;;;;2.13;0.70;;;;;;;;;;5011626;28;20208;-37
2023/01/09 10:48:30;;;;;;;1.10;0.63;;;;;;;;;;5011499;28;20210;-36
2023/01/09 10:51:06;;;;;;;3.13;0.60;;;;;;;;;;4998410;28;20223;-32
2023/01/09 10:53:46;;;;;;;2.13;0.57;;;;;;;;;;5005981;28;20222;-32
2023/01/09 10:56:17;;;;;;;2.53;0.70;;;;;;;;;;5010198;28;20210;-33
2023/01/09 10:58:51;;;;;;;2.97;0.70;;;;;;;;;;4999908;28;20496;-36
2023/01/09 11:01:26;;;;;;;1.30;0.80;;;;;;;;;;5005645;28;20231;-35
2023/01/09 11:03:53;;;;;;;2.07;0.80;;;;;;;;;;5020426;28;20206;-30
2023/01/09 11:06:24;;;;;;;6.03;1.10;;;;;;;;;;5010736;28;20214;-36
2023/01/09 11:08:53;;;;;;;3.33;2.60;;;;;;;;;;5000167;28;20207;-35
2023/01/09 11:11:32;;;;;;;3.47;0.50;;;;;;;;;;5011712;28;20218;-36
2023/01/09 11:14:04;;;;;;;1.50;0.50;;;;;;;;;;5002158;28;20214;-36
2023/01/09 11:16:31;;;;;;;4.20;0.67;;;;;;;;;;5008714;28;20199;-34
2023/01/09 11:19:00;;;;;;;2.57;1.00;;;;;;;;;;5011143;28;20204;-33
2023/01/09 11:21:30;;;;;;;1.77;0.70;;;;;;;;;;5003071;28;20316;-38
2023/01/09 11:24:17;;;;;;;1.37;0.73;;;;;;;;;;5011291;28;20211;-34
2023/01/09 11:26:44;;;;;;;5.33;0.60;;;;;;;;;;5011737;28;20203;-33
2023/01/09 11:29:12;;;;;;;4.23;0.87;;;;;;;;;;5000619;28;20339;-33
2023/01/09 11:31:40;;;;;;;2.87;1.30;;;;;;;;;;5009369;28;20266;-36
2023/01/09 11:34:08;;;;;;;1.13;0.63;;;;;;;;;;5011457;28;20195;-32
2023/01/09 11:36:35;;;;;;;4.27;0.70;;;;;;;;;;5011541;28;20211;-33
2023/01/09 11:39:03;;;;;;;2.03;0.40;;;;;;;;;;4996419;28;20207;-38
2023/01/09 11:41:33;;;;;;;2.10;0.73;;;;;;;;;;5009661;28;20238;-31
2023/01/09 11:44:01;;;;;;;1.30;0.70;;;;;;;;;;4991705;28;20200;-33
2023/01/09 11:46:32;;;;;;;5.20;1.00;;;;;;;;;;5001205;28;20212;-35
2023/01/09 11:49:00;;;;;;;3.90;0.77;;;;;;;;;;5012268;28;20203;-34
2023/01/09 11:51:28;;;;;;;2.63;1.00;;;;;;;;;;5005121;28;20223;-37
2023/01/09 11:54:10;;;;;;;1.17;0.53;;;;;;;;;;5000060;28;20571;-35
2023/01/09 11:56:39;;;;;;;2.40;0.70;;;;;;;;;;5010953;28;20632;-34
2023/01/09 11:59:09;;;;;;;6.40;0.90;;;;;;;;;;5013770;28;20215;-34
2023/01/09 12:01:45;;;;;;;1.90;0.53;;;;;;;;;;5009322;28;20243;-33
2023/01/09 12:04:18;;;;;;;7.00;0.87;;;;;;;;;;5016145;28;20219;-33
2023/01/09 12:06:50;;;;;;;3.27;0.90;;;;;;;;;;5012838;28;20233;-39
2023/01/09 12:09:19;;;;;;;4.10;0.60;;;;;;;;;;5006221;28;20208;-36
2023/01/09 12:11:51;;;;;;;0.50;0.43;;;;;;;;;;5014501;28;20226;-32
2023/01/09 12:14:24;;;;;;;3.73;0.73;;;;;;;;;;5005861;28;20219;-35
2023/01/09 12:16:58;;;;;;;4.37;0.70;;;;;;;;;;5007829;28;20204;-33
2023/01/09 12:19:40;;;;;;;1.17;0.60;;;;;;;;;;5014299;28;20199;-33
2023/01/09 12:22:11;;;;;;;2.13;0.93;;;;;;;;;;5000274;28;20235;-37
2023/01/09 12:24:52;;;;;;;2.57;0.90;;;;;;;;;;5012759;28;20204;-37
2023/01/09 12:27:25;;;;;;;1.43;0.60;;;;;;;;;;5014391;28;20556;-33
2023/01/09 12:30:05;;;;;;;3.40;0.97;;;;;;;;;;5004652;28;20230;-40
2023/01/09 12:32:37;;;;;;;2.23;1.40;;;;;;;;;;5012083;28;20781;-40
2023/01/09 12:35:08;;;;;;;2.47;1.23;;;;;;;;;;5014627;28;20206;-33
2023/01/09 12:37:53;;;;;;;3.17;0.80;;;;;;;;;;5007183;28;20210;-33
2023/01/09 12:40:26;;;;;;;3.33;0.80;;;;;;;;;;5013435;28;20226;-38
2023/01/09 12:42:59;;;;;;;1.70;0.57;;;;;;;;;;5009311;28;20219;-36
2023/01/09 12:45:35;;;;;;;3.50;1.00;;;;;;;;;;5003412;28;20445;-34
2023/01/09 12:48:06;;;;;;;2.30;0.80;;;;;;;;;;5014247;28;20207;-35
2023/01/09 12:50:47;;;;;;;1.70;0.60;;;;;;;;;;5013552;28;20199;-35
2023/01/09 12:53:18;;;;;;;5.73;1.00;;;;;;;;;;5002723;28;20207;-40
2023/01/09 12:55:47;;;;;;;1.83;0.90;;;;;;;;;;5013637;28;20200;-43
2023/01/09 12:58:20;;;;;;;4.60;0.83;;;;;;;;;;5005963;28;20210;-33
2023/01/09 13:00:50;;;;;;;2.27;0.60;;;;;;;;;;5005668;28;20214;-33
2023/01/09 13:03:19;;;;;;;1.70;0.60;;;;;;;;;;5014140;28;20290;-36
2023/01/09 13:05:48;;;;;;;2.57;0.80;;;;;;;;;;5013531;28;20215;-39
2023/01/09 13:08:18;;;;;;;2.33;0.77;;;;;;;;;;5004117;28;20200;-35
2023/01/09 13:10:46;;;;;;;1.83;0.77;;;;;;;;;;5010437;28;20443;-31
2023/01/09 13:13:15;;;;;;;2.60;0.80;;;;;;;;;;5004513;28;20208;-33
2023/01/09 13:15:45;;;;;;;1.73;0.80;;;;;;;;;;4998332;28;20222;-33
2023/01/09 13:18:14;;;;;;;4.07;1.00;;;;;;;;;;5012501;28;20555;-34
2023/01/09 13:20:44;;;;;;;2.40;0.90;;;;;;;;;;5012646;28;20231;-37
2023/01/09 13:23:16;;;;;;;3.93;0.80;;;;;;;;;;5003197;28;20204;-35
2023/01/09 13:25:44;;;;;;;3.30;0.80;;;;;;;;;;4999289;28;20299;-36
2023/01/09 13:28:15;;;;;;;3.20;1.07;;;;;;;;;;5003977;28;20208;-33
2023/01/09 13:31:00;;;;;;;3.50;0.73;;;;;;;;;;5009442;28;20302;-38
2023/01/09 13:33:28;;;;;;;1.33;0.50;;;;;;;;;;5012398;28;20192;-33
2023/01/09 13:35:57;;;;;;;0.33;0.33;;;;;;;;;;5013407;28;20203;-36
2023/01/09 13:38:25;;;;;;;1.57;0.60;;;;;;;;;;5002772;28;20208;-37
2023/01/09 13:42:34;;;;;;;1.37;0.60;;;;;;;;;;5011571;28;20223;-36
2023/01/09 13:43:54;;;;;;;0.30;0.30;;;;;;;;;;4991860;28;20211;-37
2023/01/09 13:46:22;;;;;;;0.40;0.40;;;;;;;;;;5007454;28;20203;-38
2023/01/09 13:48:49;;;;;;;0.50;0.10;;;;;;;;;;5012221;28;20215;-38
2023/01/09 13:51:35;;;;;;;2.97;0.30;;;;;;;;;;5002432;28;20219;-34
2023/01/09 13:54:02;;;;;;;0.57;0.30;;;;;;;;;;5007076;28;20748;-34
2023/01/09 13:56:30;;;;;;;0.40;0.40;;;;;;;;;;5013156;28;20199;-38
2023/01/09 13:58:57;;;;;;;0.60;0.20;;;;;;;;;;5004267;28;20208;-35
2023/01/09 14:01:42;;;;;;;0.00;0.00;;;;;;;;;;5009421;28;20238;-36
2023/01/09 14:04:28;;;;;;;1.50;0.20;;;;;;;;;;5012101;28;20572;-34
2023/01/09 14:07:10;;;;;;;0.20;0.20;;;;;;;;;;5002809;28;20199;-40
2023/01/09 14:09:37;;;;;;;2.07;0.30;;;;;;;;;;5010981;28;20214;-31
2023/01/09 14:12:06;;;;;;;0.83;0.30;;;;;;;;;;5013002;28;20231;-34
2023/01/09 14:14:34;;;;;;;0.20;0.20;;;;;;;;;;5003128;28;20647;-36
2023/01/09 14:17:03;;;;;;;0.23;0.23;;;;;;;;;;5007469;28;20210;-32
2023/01/09 14:19:33;;;;;;;2.07;0.40;;;;;;;;;;5012369;28;20242;-40
2023/01/09 14:22:01;;;;;;;1.13;0.50;;;;;;;;;;5013246;28;20215;-34
2023/01/09 14:24:30;;;;;;;0.10;0.10;;;;;;;;;;5002295;28;20207;-38
2023/01/09 14:26:58;;;;;;;0.50;0.30;;;;;;;;;;5012670;28;20203;-37
2023/01/09 14:29:39;;;;;;;0.97;0.30;;;;;;;;;;4999365;28;20208;-36
2023/01/09 14:32:26;;;;;;;2.27;0.40;;;;;;;;;;4998962;28;20226;-33
2023/01/09 14:34:57;;;;;;;1.27;0.40;;;;;;;;;;5005849;28;20203;-36
2023/01/09 14:37:25;;;;;;;1.47;0.40;;;;;;;;;;5004385;28;20241;-36
2023/01/09 14:39:52;;;;;;;1.13;0.40;;;;;;;;;;5004922;28;20221;-32
2023/01/09 14:42:22;;;;;;;0.20;0.20;;;;;;;;;;5012991;28;20313;-40
2023/01/09 14:44:51;;;;;;;0.30;0.20;;;;;;;;;;4998036;28;20234;-38
2023/01/09 14:47:20;;;;;;;0.20;0.20;;;;;;;;;;5012767;28;20206;-32
2023/01/09 14:49:50;;;;;;;0.67;0.30;;;;;;;;;;5012582;28;20203;-42
2023/01/09 14:52:22;;;;;;;0.67;0.37;;;;;;;;;;5001360;28;20223;-37
2023/01/09 14:54:50;;;;;;;0.30;0.30;;;;;;;;;;5005138;28;20195;-37
2023/01/09 14:57:25;;;;;;;0.30;0.30;;;;;;;;;;5012998;28;20207;-33
2023/01/09 14:59:55;;;;;;;0.67;0.57;;;;;;;;;;5002569;28;20621;-32
2023/01/09 15:02:23;;;;;;;0.50;0.47;;;;;;;;;;5006987;28;20230;-39
2023/01/09 15:04:50;;;;;;;0.97;0.33;;;;;;;;;;5011302;28;20207;-38
2023/01/09 15:07:22;;;;;;;0.47;0.47;;;;;;;;;;5009283;28;20697;-31
2023/01/09 15:09:49;;;;;;;0.67;0.40;;;;;;;;;;5003157;28;20199;-31
2023/01/09 15:12:19;;;;;;;3.00;0.70;;;;;;;;;;5011946;28;20247;-39